Time;durP1;ratioP1;P1;durP2;ratioP2;P2;SDS_P1;SDS_P2;PMS_P1;PMS_P2;Temp;Humidity;BMP_temperature;BMP_pressure;BME280_temperature;BME280_humidity;BME280_pressure;Samples;Min_cycle;Max_cycle;Signal;HPM_P1;HPM_P2
2022/04/06 00:00:25;;;;;;;;;;;;;;;20.87;42.16;99525.38;4972456;28;5218;-48
2022/04/06 00:02:51;;;;;;;;;;;;;;;20.88;42.08;99529.00;4978872;28;4229;-48
2022/04/06 00:05:17;;;;;;;;;;;;;;;20.87;42.14;99525.38;4973776;28;4258;-49
2022/04/06 00:07:44;;;;;;;;;;;;;;;20.86;42.16;99532.53;4977849;28;4259;-49
2022/04/06 00:10:11;;;;;;;;;;;;;;;20.85;42.28;99519.59;4978099;28;4633;-49
2022/04/06 00:12:40;;;;;;;;;;;;;;;20.86;42.16;99520.31;4960668;28;4058;-47
2022/04/06 00:15:08;;;;;;;;;;;;;;;20.87;42.19;99527.53;4979294;28;4239;-51
2022/04/06 00:17:34;;;;;;;;;;;;;;;20.86;42.16;99532.53;4977111;28;4192;-48
2022/04/06 00:20:00;;;;;;;;;;;;;;;20.86;42.21;99526.78;4974580;28;4169;-49
2022/04/06 00:22:27;;;;;;;;;;;;;;;20.84;42.26;99535.38;4979466;28;4135;-49
2022/04/06 00:24:53;;;;;;;;;;;;;;;20.83;42.17;99533.94;4966171;28;4198;-48
2022/04/06 00:27:20;;;;;;;;;;;;;;;20.84;42.14;99528.91;4974157;28;5792;-49
2022/04/06 00:29:46;;;;;;;;;;;;;;;20.82;42.27;99523.84;4980599;28;4048;-49
2022/04/06 00:32:12;;;;;;;;;;;;;;;20.82;42.19;99520.97;4975327;28;4051;-50
2022/04/06 00:37:24;;;;;;;;;;;;;;;20.81;42.02;99521.63;4978801;28;5457;-48
2022/04/06 00:39:50;;;;;;;;;;;;;;;20.82;42.31;99535.34;4974611;28;5196;-50
2022/04/06 00:42:18;;;;;;;;;;;;;;;20.81;42.21;99533.16;4976906;28;4175;-49
2022/04/06 00:44:44;;;;;;;;;;;;;;;20.80;42.24;99529.53;4975906;28;4059;-48
2022/04/06 00:47:10;;;;;;;;;;;;;;;20.81;42.28;99525.25;4980011;28;4271;-51
2022/04/06 00:49:37;;;;;;;;;;;;;;;20.80;42.20;99520.91;4964831;28;6399;-48
2022/04/06 00:52:04;;;;;;;;;;;;;;;20.80;42.34;99523.78;4966515;28;4562;-49
2022/04/06 00:54:30;;;;;;;;;;;;;;;20.80;42.22;99523.03;4962681;28;4246;-48
2022/04/06 00:56:57;;;;;;;;;;;;;;;20.79;42.13;99522.31;4964804;28;4188;-48
2022/04/06 00:59:23;;;;;;;;;;;;;;;20.79;42.26;99522.31;4970273;28;4203;-48
2022/04/06 01:01:50;;;;;;;;;;;;;;;20.78;42.23;99520.88;4963580;28;5151;-51
2022/04/06 01:04:16;;;;;;;;;;;;;;;20.78;42.18;99518.00;4965704;28;4419;-49
2022/04/06 01:06:43;;;;;;;;;;;;;;;20.79;42.36;99515.84;4979400;28;4297;-49
2022/04/06 01:09:09;;;;;;;;;;;;;;;20.80;42.22;99517.28;4977673;28;4320;-47
2022/04/06 01:11:36;;;;;;;;;;;;;;;20.79;42.30;99512.97;4978472;28;4072;-47
2022/04/06 01:14:02;;;;;;;;;;;;;;;20.78;42.30;99515.13;4976149;28;4294;-52
2022/04/06 01:16:29;;;;;;;;;;;;;;;20.78;42.31;99509.34;4975643;28;4193;-47
2022/04/06 01:18:55;;;;;;;;;;;;;;;20.78;42.24;99512.22;4974905;28;4074;-47
2022/04/06 01:21:22;;;;;;;;;;;;;;;20.81;42.23;99507.97;4974489;28;5219;-52
2022/04/06 01:23:48;;;;;;;;;;;;;;;20.78;42.20;99509.34;4976674;28;4280;-50
2022/04/06 01:26:14;;;;;;;;;;;;;;;20.81;42.27;99515.88;4976766;28;4272;-49
2022/04/06 01:28:41;;;;;;;;;;;;;;;20.82;42.19;99503.69;4967407;28;4241;-48
2022/04/06 01:31:07;;;;;;;;;;;;;;;20.82;41.93;99515.22;4968366;28;5468;-50
2022/04/06 01:33:34;;;;;;;;;;;;;;;20.82;42.24;99506.56;4968278;28;5178;-48
2022/04/06 01:36:00;;;;;;;;;;;;;;;20.83;42.16;99501.56;4965456;28;5238;-49
2022/04/06 01:38:26;;;;;;;;;;;;;;;20.82;42.26;99503.69;4970746;28;4013;-50
2022/04/06 01:40:53;;;;;;;;;;;;;;;20.83;42.25;99505.16;4976102;28;4224;-50
2022/04/06 01:43:19;;;;;;;;;;;;;;;20.82;42.28;99503.69;4974749;28;4102;-48
2022/04/06 01:45:46;;;;;;;;;;;;;;;20.82;42.15;99515.22;4979046;28;4233;-49
2022/04/06 01:48:13;;;;;;;;;;;;;;;20.83;42.16;99510.91;4970098;28;4566;-49
2022/04/06 01:53:24;;;;;;;;;;;;;;;20.81;42.23;99510.84;4970767;28;4189;-51
2022/04/06 01:55:51;;;;;;;;;;;;;;;20.81;42.26;99501.50;4973412;28;4296;-49
2022/04/06 01:58:18;;;;;;;;;;;;;;;20.81;42.19;99510.13;4974263;28;4298;-48
2022/04/06 02:00:44;;;;;;;;;;;;;;;20.79;42.27;99504.31;4971932;28;4305;-47
2022/04/06 02:03:11;;;;;;;;;;;;;;;20.80;42.29;99503.66;4972715;28;4162;-51
2022/04/06 02:05:37;;;;;;;;;;;;;;;20.80;42.29;99506.53;4971417;28;4145;-50
2022/04/06 02:08:03;;;;;;;;;;;;;;;20.79;42.28;99510.81;4973700;28;4220;-51
2022/04/06 02:10:30;;;;;;;;;;;;;;;20.79;42.38;99505.06;4972804;28;4226;-49
2022/04/06 02:12:57;;;;;;;;;;;;;;;20.78;42.32;99503.59;4975895;28;4407;-50
2022/04/06 02:15:24;;;;;;;;;;;;;;;20.78;42.27;99500.72;4976129;28;4306;-49
2022/04/06 02:17:50;;;;;;;;;;;;;;;20.76;42.37;99500.69;4974829;28;4089;-47
2022/04/06 02:20:17;;;;;;;;;;;;;;;20.77;42.38;99496.38;4972583;28;4221;-47
2022/04/06 02:22:47;;;;;;;;;;;;;;;20.77;42.35;99501.41;4974805;28;4157;-51
2022/04/06 02:25:14;;;;;;;;;;;;;;;20.78;42.40;99503.59;4973136;28;4148;-48
2022/04/06 02:27:58;;;;;;;;;;;;;;;20.75;42.49;99499.19;4969937;28;4082;-48
2022/04/06 02:30:24;;;;;;;;;;;;;;;20.76;42.50;99500.69;4970475;28;4214;-50
2022/04/06 02:32:51;;;;;;;;;;;;;;;20.74;42.50;99497.75;4973858;28;4180;-49
2022/04/06 02:35:17;;;;;;;;;;;;;;;20.72;42.35;99500.59;4977016;28;4087;-48
2022/04/06 02:37:44;;;;;;;;;;;;;;;20.75;42.42;99504.94;4973969;28;5288;-49
2022/04/06 02:40:11;;;;;;;;;;;;;;;20.74;42.49;99505.66;4975105;28;4196;-48
2022/04/06 02:42:38;;;;;;;;;;;;;;;20.74;42.42;99492.00;4973610;28;4039;-48
2022/04/06 02:45:04;;;;;;;;;;;;;;;20.74;42.41;99497.75;4976401;28;4229;-52
2022/04/06 02:47:30;;;;;;;;;;;;;;;20.73;42.47;99490.56;4972848;28;4258;-47
2022/04/06 02:49:57;;;;;;;;;;;;;;;20.73;42.46;99493.44;4978140;28;4239;-47
2022/04/06 02:52:23;;;;;;;;;;;;;;;20.71;42.43;99487.63;4975989;28;5178;-48
2022/04/06 02:54:49;;;;;;;;;;;;;;;20.71;42.38;99493.38;4980255;28;5423;-47
2022/04/06 02:57:16;;;;;;;;;;;;;;;20.72;42.38;99489.06;4980291;28;4235;-47
2022/04/06 02:59:42;;;;;;;;;;;;;;;20.71;42.42;99494.09;4981273;28;4328;-47
2022/04/06 03:02:08;;;;;;;;;;;;;;;20.73;42.36;99489.78;4977196;28;5840;-48
2022/04/06 03:04:35;;;;;;;;;;;;;;;20.71;42.35;99487.63;4979502;28;4166;-49
2022/04/06 03:07:01;;;;;;;;;;;;;;;20.75;42.35;99492.72;4977192;28;4084;-50
2022/04/06 03:09:28;;;;;;;;;;;;;;;20.76;42.29;99486.28;4977990;28;5684;-48
2022/04/06 03:11:54;;;;;;;;;;;;;;;20.77;42.30;99489.91;4979418;28;4044;-49
2022/04/06 03:14:20;;;;;;;;;;;;;;;20.77;42.43;99490.63;4975739;28;5447;-49
2022/04/06 03:16:47;;;;;;;;;;;;;;;20.73;42.49;99490.56;4980055;28;4253;-48
2022/04/06 03:19:13;;;;;;;;;;;;;;;20.78;42.41;99491.38;4976337;28;4199;-49
2022/04/06 03:21:39;;;;;;;;;;;;;;;20.75;42.50;99490.56;4975848;28;5257;-47
2022/04/06 03:24:06;;;;;;;;;;;;;;;20.78;42.50;99492.09;4979328;28;4173;-49
2022/04/06 03:26:32;;;;;;;;;;;;;;;20.79;42.46;99493.53;4977854;28;3965;-50
2022/04/06 03:28:59;;;;;;;;;;;;;;;20.80;42.44;99495.03;4981059;28;4147;-49
2022/04/06 03:31:25;;;;;;;;;;;;;;;20.76;42.47;99497.81;4972415;28;4484;-50
2022/04/06 03:33:52;;;;;;;;;;;;;;;20.79;42.52;99496.41;4969197;28;5352;-52
2022/04/06 03:36:18;;;;;;;;;;;;;;;20.80;42.31;99500.78;4969362;28;6400;-48
2022/04/06 03:38:44;;;;;;;;;;;;;;;20.78;42.42;99494.97;4966649;28;4273;-52
2022/04/06 03:41:11;;;;;;;;;;;;;;;20.78;42.49;99494.97;4964852;28;4351;-48
2022/04/06 03:43:37;;;;;;;;;;;;;;;20.81;42.42;99495.75;4969735;28;4114;-50
2022/04/06 03:46:04;;;;;;;;;;;;;;;20.82;42.39;99489.31;4967459;28;4590;-49
2022/04/06 03:48:30;;;;;;;;;;;;;;;20.79;42.33;99501.44;4964924;28;4664;-47
2022/04/06 03:50:56;;;;;;;;;;;;;;;20.80;42.52;99495.03;4967768;28;4165;-49
2022/04/06 03:53:23;;;;;;;;;;;;;;;20.79;42.52;99493.53;4973100;28;4492;-49
2022/04/06 03:55:50;;;;;;;;;;;;;;;20.83;42.48;99495.81;4971628;28;4565;-48
2022/04/06 03:58:16;;;;;;;;;;;;;;;20.83;42.43;99507.31;4979152;28;4308;-48
2022/04/06 04:00:43;;;;;;;;;;;;;;;20.81;42.47;99502.22;4978507;28;4307;-49
2022/04/06 04:03:10;;;;;;;;;;;;;;;20.79;42.53;99487.78;4979525;28;4566;-47
2022/04/06 04:05:36;;;;;;;;;;;;;;;20.82;42.42;99492.19;4975167;28;4146;-48
2022/04/06 04:08:03;;;;;;;;;;;;;;;20.83;42.31;99490.78;4976642;28;4249;-50
2022/04/06 04:10:29;;;;;;;;;;;;;;;20.82;42.49;99500.81;4975859;28;4286;-47
2022/04/06 04:12:55;;;;;;;;;;;;;;;20.81;42.32;99505.09;4974086;28;4100;-49
2022/04/06 04:15:22;;;;;;;;;;;;;;;20.82;42.40;99503.69;4976408;28;4198;-52
2022/04/06 04:17:49;;;;;;;;;;;;;;;20.83;42.40;99505.16;4978793;28;4648;-49
2022/04/06 04:20:15;;;;;;;;;;;;;;;20.80;42.46;99500.78;4974931;28;4427;-50
2022/04/06 04:22:41;;;;;;;;;;;;;;;20.84;42.32;99508.75;4974932;28;3999;-51
2022/04/06 04:25:08;;;;;;;;;;;;;;;20.81;42.36;99507.97;4977339;28;4210;-49
2022/04/06 04:27:35;;;;;;;;;;;;;;;20.82;42.39;99509.47;4979155;28;4193;-49
2022/04/06 04:30:02;;;;;;;;;;;;;;;20.81;42.36;99507.97;4977342;28;4141;-48
2022/04/06 04:32:33;;;;;;;;;;;;;;;20.83;42.41;99519.53;4973232;28;4289;-49
2022/04/06 04:35:03;;;;;;;;;;;;;;;20.82;42.42;99515.22;4976143;28;4562;-47
2022/04/06 04:37:30;;;;;;;;;;;;;;;20.83;42.54;99515.94;4972903;28;4094;-48
2022/04/06 04:39:56;;;;;;;;;;;;;;;20.85;42.43;99516.72;4978625;28;5435;-50
2022/04/06 04:42:22;;;;;;;;;;;;;;;20.86;42.56;99526.06;4978404;28;4518;-47
2022/04/06 04:44:49;;;;;;;;;;;;;;;20.87;42.46;99516.03;4969671;28;4277;-48
2022/04/06 04:47:16;;;;;;;;;;;;;;;20.88;42.44;99532.59;4971986;28;5248;-64
2022/04/06 04:49:43;;;;;;;;;;;;;;;20.85;42.68;99525.34;4969573;28;4174;-53
2022/04/06 04:52:09;;;;;;;;;;;;;;;20.81;43.11;99525.25;4971251;28;4250;-52
2022/04/06 04:54:36;;;;;;;;;;;;;;;20.85;42.83;99525.34;4973911;28;4321;-54
2022/04/06 04:57:03;;;;;;;;;;;;;;;20.89;43.30;99528.31;4972808;28;4228;-54
2022/04/06 04:59:29;;;;;;;;;;;;;;;20.91;43.42;99528.38;4976115;28;4178;-54
2022/04/06 05:01:55;;;;;;;;;;;;;;;20.91;43.42;99530.50;4979850;28;4154;-55
2022/04/06 05:04:22;;;;;;;;;;;;;;;20.90;43.50;99526.88;4977807;28;4218;-54
2022/04/06 05:06:48;;;;;;;;;;;;;;;20.92;43.60;99532.69;4978095;28;5535;-52
2022/04/06 05:09:14;;;;;;;;;;;;;;;20.92;43.70;99534.84;4978282;28;4550;-54
2022/04/06 05:11:41;;;;;;;;;;;;;;;20.91;43.65;99534.13;4979058;28;4111;-53
2022/04/06 05:14:07;;;;;;;;;;;;;;;20.92;43.75;99534.84;4979854;28;5343;-52
2022/04/06 05:16:33;;;;;;;;;;;;;;;20.90;43.80;99534.81;4976276;28;4188;-49
2022/04/06 05:19:01;;;;;;;;;;;;;;;20.92;43.66;99537.72;4976483;28;4156;-53
2022/04/06 05:21:27;;;;;;;;;;;;;;;20.92;43.58;99535.56;4976058;28;4279;-54
2022/04/06 05:23:53;;;;;;;;;;;;;;;20.92;43.59;99529.09;4977071;28;4116;-52
2022/04/06 05:26:20;;;;;;;;;;;;;;;20.92;43.65;99538.44;4977197;28;4266;-53
2022/04/06 05:28:46;;;;;;;;;;;;;;;20.91;43.67;99534.13;4978039;28;5222;-55
2022/04/06 05:31:12;;;;;;;;;;;;;;;20.93;43.77;99542.06;4975976;28;4219;-52
2022/04/06 05:33:39;;;;;;;;;;;;;;;20.92;43.59;99540.59;4975763;28;4282;-49
2022/04/06 05:36:06;;;;;;;;;;;;;;;20.92;43.70;99541.31;4978793;28;4221;-54
2022/04/06 05:38:34;;;;;;;;;;;;;;;20.96;43.67;99540.69;4975764;28;4263;-54
2022/04/06 05:41:02;;;;;;;;;;;;;;;20.95;43.71;99538.50;4978438;28;4550;-51
2022/04/06 05:43:28;;;;;;;;;;;;;;;20.94;43.72;99540.66;4979954;28;3913;-53
2022/04/06 05:45:55;;;;;;;;;;;;;;;20.93;43.72;99545.66;4977284;28;5276;-52
2022/04/06 05:48:21;;;;;;;;;;;;;;;20.95;43.65;99550.72;4959588;28;5329;-51
2022/04/06 05:50:48;;;;;;;;;;;;;;;20.93;43.80;99542.78;4977829;28;4501;-49
2022/04/06 05:53:15;;;;;;;;;;;;;;;20.93;43.76;99547.81;4974304;28;4233;-51
2022/04/06 05:55:42;;;;;;;;;;;;;;;20.94;43.78;99557.91;4977247;28;4135;-58
2022/04/06 05:58:09;;;;;;;;;;;;;;;20.87;44.22;99556.31;4978543;28;4246;-59
2022/04/06 06:00:36;;;;;;;;;;;;;;;20.82;44.16;99552.59;4975578;28;4227;-59
2022/04/06 06:03:03;;;;;;;;;;;;;;;20.80;44.23;99552.56;4977881;28;5602;-59
2022/04/06 06:05:29;;;;;;;;;;;;;;;20.81;44.34;99553.28;4974869;28;4260;-59
2022/04/06 06:07:56;;;;;;;;;;;;;;;20.80;44.12;99558.31;4977053;28;4077;-59
2022/04/06 06:10:22;;;;;;;;;;;;;;;20.80;44.41;99561.19;4974965;28;5300;-58
2022/04/06 06:12:48;;;;;;;;;;;;;;;20.79;44.39;99551.09;4977181;28;4203;-58
2022/04/06 06:15:15;;;;;;;;;;;;;;;20.79;44.37;99550.34;4977087;28;4227;-58
2022/04/06 06:17:42;;;;;;;;;;;;;;;20.78;44.38;99549.63;4977255;28;4185;-58
2022/04/06 06:20:08;;;;;;;;;;;;;;;20.78;44.43;99543.88;4973762;28;5258;-59
2022/04/06 06:22:34;;;;;;;;;;;;;;;20.78;44.39;99557.53;4977499;28;4554;-59
2022/04/06 06:25:01;;;;;;;;;;;;;;;20.76;44.42;99546.69;4974945;28;4216;-58
2022/04/06 06:27:27;;;;;;;;;;;;;;;20.78;44.30;99546.75;4976987;28;4231;-58
2022/04/06 06:29:53;;;;;;;;;;;;;;;20.77;44.39;99539.53;4976700;28;4279;-59
2022/04/06 06:32:20;;;;;;;;;;;;;;;20.80;44.17;99549.69;4975071;28;5155;-57
2022/04/06 06:34:46;;;;;;;;;;;;;;;20.81;44.28;99536.75;4976107;28;5292;-58
2022/04/06 06:37:12;;;;;;;;;;;;;;;20.82;44.34;99543.97;4977052;28;4214;-57
2022/04/06 06:39:39;;;;;;;;;;;;;;;20.78;44.46;99543.88;4975004;28;4244;-58
2022/04/06 06:42:05;;;;;;;;;;;;;;;20.82;44.60;99543.97;4977998;28;4230;-59
2022/04/06 06:44:32;;;;;;;;;;;;;;;20.81;44.68;99545.38;4976709;28;4251;-56
2022/04/06 06:46:58;;;;;;;;;;;;;;;20.79;44.62;99536.69;4975038;28;4203;-58
2022/04/06 06:49:25;;;;;;;;;;;;;;;20.80;44.68;99537.41;4979587;28;4182;-58
2022/04/06 06:51:51;;;;;;;;;;;;;;;20.83;44.63;99538.94;4978842;28;4357;-58
2022/04/06 06:54:19;;;;;;;;;;;;;;;20.82;44.60;99535.34;4976372;28;4193;-58
2022/04/06 06:56:45;;;;;;;;;;;;;;;20.84;44.61;99541.13;4977300;28;4084;-58
2022/04/06 06:59:11;;;;;;;;;;;;;;;20.88;44.57;99534.75;4975376;28;5334;-58
2022/04/06 07:01:38;;;;;;;;;;;;;;;20.86;44.72;99526.78;4977609;28;4153;-58
2022/04/06 07:04:04;;;;;;;;;;;;;;;20.88;44.53;99529.72;4976978;28;4122;-58
2022/04/06 07:06:30;;;;;;;;;;;;;;;20.82;44.46;99537.47;4976028;28;4221;-58
2022/04/06 07:08:57;;;;;;;;;;;;;;;20.87;44.71;99525.38;4978198;28;4416;-58
2022/04/06 07:11:23;;;;;;;;;;;;;;;20.86;44.76;99521.03;4976995;28;5442;-58
2022/04/06 07:13:49;;;;;;;;;;;;;;;20.86;44.77;99517.44;4974375;28;4163;-58
2022/04/06 07:16:16;;;;;;;;;;;;;;;20.83;44.87;99513.78;4973527;28;4152;-57
2022/04/06 07:18:42;;;;;;;;;;;;;;;20.83;44.84;99522.41;4977881;28;4063;-58
2022/04/06 07:21:09;;;;;;;;;;;;;;;20.84;44.81;99523.13;4977497;28;4309;-58
2022/04/06 07:23:36;;;;;;;;;;;;;;;20.85;44.77;99522.47;4979247;28;4037;-58
2022/04/06 07:26:03;;;;;;;;;;;;;;;20.86;44.63;99512.41;4977534;28;5161;-59
2022/04/06 07:28:29;;;;;;;;;;;;;;;20.85;44.68;99513.84;4977896;28;4044;-58
2022/04/06 07:30:55;;;;;;;;;;;;;;;20.86;44.79;99509.53;4974759;28;4015;-58
2022/04/06 07:33:28;;;;;;;;;;;;;;;20.86;44.81;99497.28;4976982;28;4242;-58
2022/04/06 07:35:54;;;;;;;;;;;;;;;20.84;44.73;99506.59;4975637;28;4179;-58
2022/04/06 07:38:21;;;;;;;;;;;;;;;20.86;44.77;99506.66;4980411;28;4085;-58
2022/04/06 07:40:47;;;;;;;;;;;;;;;20.84;44.78;99503.72;4979745;28;4169;-58
2022/04/06 07:43:14;;;;;;;;;;;;;;;20.86;44.73;99518.16;4980702;28;4553;-59
2022/04/06 07:45:40;;;;;;;;;;;;;;;20.83;44.83;99505.16;4981908;28;4077;-58
2022/04/06 07:48:06;;;;;;;;;;;;;;;20.85;44.88;99510.22;4980175;28;4131;-60
2022/04/06 07:50:33;;;;;;;;;;;;;;;20.88;44.48;99503.81;4978538;28;4139;-58
2022/04/06 07:52:59;;;;;;;;;;;;;;;20.88;44.60;99506.69;4979176;28;4065;-58
2022/04/06 07:55:26;;;;;;;;;;;;;;;20.86;44.78;99509.53;4980610;28;4139;-58
2022/04/06 07:57:52;;;;;;;;;;;;;;;20.88;44.66;99503.09;4980734;28;4256;-58
2022/04/06 08:00:19;;;;;;;;;;;;;;;20.87;44.81;99505.25;4981926;28;4206;-59
2022/04/06 08:02:45;;;;;;;;;;;;;;;20.85;44.92;99502.31;4978731;28;4056;-58
2022/04/06 08:05:12;;;;;;;;;;;;;;;20.87;45.10;99504.53;4980452;28;4175;-59
2022/04/06 08:07:43;;;;;;;;;;;;;;;20.87;45.12;99510.28;4980883;28;3992;-59
2022/04/06 08:10:10;;;;;;;;;;;;;;;20.89;45.16;99505.31;4978649;28;5522;-58
2022/04/06 08:12:37;;;;;;;;;;;;;;;20.87;45.55;99498.78;4981620;28;4491;-58
2022/04/06 08:15:04;;;;;;;;;;;;;;;20.88;45.35;99500.94;4980731;28;4132;-59
2022/04/06 08:17:37;;;;;;;;;;;;;;;20.92;45.60;99503.19;4980136;28;4148;-58
2022/04/06 08:20:04;;;;;;;;;;;;;;;20.93;45.91;99502.50;4979027;28;4552;-59
2022/04/06 08:22:31;;;;;;;;;;;;;;;20.91;45.94;99511.09;4980461;28;4348;-58
2022/04/06 08:24:57;;;;;;;;;;;;;;;20.91;45.92;99511.09;4979731;28;5558;-58
2022/04/06 08:27:43;;;;;;;;;;;;;;;20.92;45.82;99514.72;4981916;28;4380;-58
2022/04/06 08:30:10;;;;;;;;;;;;;;;20.92;45.31;99518.31;4979587;28;4161;-58
2022/04/06 08:32:37;;;;;;;;;;;;;;;20.90;45.90;99524.00;4978219;28;4128;-58
2022/04/06 08:35:03;;;;;;;;;;;;;;;20.93;45.42;99519.03;4979218;28;4179;-59
2022/04/06 08:37:30;;;;;;;;;;;;;;;20.92;46.08;99506.78;4978804;28;4134;-58
2022/04/06 08:39:57;;;;;;;;;;;;;;;20.90;45.88;99517.53;4979845;28;3959;-58
2022/04/06 08:42:34;;;;;;;;;;;;;;;20.88;45.97;99526.84;4975709;28;5271;-58
2022/04/06 08:45:02;;;;;;;;;;;;;;;20.89;46.07;99513.19;4975333;28;4161;-58
2022/04/06 08:47:30;;;;;;;;;;;;;;;20.90;46.21;99514.66;4979240;28;4219;-59
2022/04/06 08:49:56;;;;;;;;;;;;;;;20.91;45.90;99513.97;4977795;28;4237;-59
2022/04/06 08:52:22;;;;;;;;;;;;;;;20.91;45.99;99513.97;4977004;28;4115;-59
2022/04/06 08:55:09;;;;;;;;;;;;;;;20.93;45.85;99511.13;4977224;28;4010;-58
2022/04/06 08:57:35;;;;;;;;;;;;;;;20.91;46.01;99508.22;4974750;28;4264;-58
2022/04/06 09:00:02;;;;;;;;;;;;;;;20.91;46.04;99505.34;4980688;28;4094;-58
2022/04/06 09:02:29;;;;;;;;;;;;;;;20.88;46.00;99506.69;4978507;28;4141;-59
2022/04/06 09:04:55;;;;;;;;;;;;;;;20.91;45.93;99504.59;4976826;28;3987;-58
2022/04/06 09:07:22;;;;;;;;;;;;;;;20.91;45.87;99516.09;4976595;28;5210;-58
2022/04/06 09:09:52;;;;;;;;;;;;;;;20.91;45.87;99516.84;4976311;28;4299;-59
2022/04/06 09:12:18;;;;;;;;;;;;;;;20.93;45.67;99513.28;4975421;28;4026;-59
2022/04/06 09:14:45;;;;;;;;;;;;;;;20.89;45.58;99502.41;4976892;28;4083;-59
2022/04/06 09:17:11;;;;;;;;;;;;;;;20.92;45.81;99503.91;4977682;28;4149;-59
2022/04/06 09:19:38;;;;;;;;;;;;;;;20.92;45.64;99498.16;4978186;28;4034;-59
2022/04/06 09:22:07;;;;;;;;;;;;;;;20.93;45.71;99496.00;4976723;28;4116;-59
2022/04/06 09:24:34;;;;;;;;;;;;;;;20.92;45.65;99501.03;4977463;28;4300;-59
2022/04/06 09:27:01;;;;;;;;;;;;;;;20.89;45.48;99493.78;4979259;28;4072;-59
2022/04/06 09:29:27;;;;;;;;;;;;;;;20.93;45.70;99490.97;4976133;28;4961;-59
2022/04/06 09:31:53;;;;;;;;;;;;;;;20.92;45.48;99495.28;4976992;28;4322;-59
2022/04/06 09:34:21;;;;;;;;;;;;;;;20.98;45.44;99491.06;4974007;28;4223;-59
2022/04/06 09:36:50;;;;;;;;;;;;;;;20.95;44.82;99493.19;4977389;28;4055;-61
2022/04/06 09:39:16;;;;;;;;;;;;;;;20.68;43.82;99478.22;4971516;28;5535;-59
2022/04/06 09:41:59;;;;;;;;;;;;;;;20.82;43.90;99500.81;4976543;28;4275;-59
2022/04/06 09:50:12;;;;;;;;;;;;;;;20.80;44.15;99477.75;4977839;28;4256;-59
2022/04/06 09:52:44;;;;;;;;;;;;;;;20.83;44.50;99481.41;4975711;28;5256;-59
2022/04/06 09:55:11;;;;;;;;;;;;;;;20.88;44.23;99486.56;4976118;28;4323;-59
2022/04/06 09:57:41;;;;;;;;;;;;;;;20.87;44.54;99476.47;4973006;28;4304;-58
2022/04/06 10:00:09;;;;;;;;;;;;;;;20.90;44.48;99477.97;4973853;28;4233;-58
2022/04/06 10:02:36;;;;;;;;;;;;;;;20.93;44.17;99488.09;4974954;28;4207;-59
2022/04/06 10:05:02;;;;;;;;;;;;;;;20.92;44.74;99483.78;4977240;28;4330;-62
2022/04/06 10:07:29;;;;;;;;;;;;;;;20.90;44.60;99483.72;4974868;28;3994;-58
2022/04/06 10:09:56;;;;;;;;;;;;;;;20.88;44.72;99483.69;4975586;28;4100;-58
2022/04/06 10:12:23;;;;;;;;;;;;;;;20.90;44.89;99486.59;4971699;28;5319;-58
2022/04/06 10:14:49;;;;;;;;;;;;;;;20.92;44.58;99486.66;4974143;28;4111;-57
2022/04/06 10:17:16;;;;;;;;;;;;;;;20.95;44.60;99480.94;4962896;28;4119;-58
2022/04/06 10:19:45;;;;;;;;;;;;;;;20.95;44.71;99480.94;4974206;28;4184;-58
2022/04/06 10:22:18;;;;;;;;;;;;;;;20.89;45.07;99490.91;4976416;28;4471;-58
2022/04/06 10:25:03;;;;;;;;;;;;;;;20.91;45.04;99473.69;4974866;28;4264;-58
2022/04/06 10:27:34;;;;;;;;;;;;;;;20.91;44.98;99473.69;4975433;28;4316;-58
2022/04/06 10:30:31;;;;;;;;;;;;;;;20.91;45.04;99476.56;4977112;28;5253;-58
2022/04/06 10:32:58;;;;;;;;;;;;;;;20.91;45.13;99470.81;4964434;28;4229;-58
2022/04/06 10:35:28;;;;;;;;;;;;;;;20.95;44.89;99469.44;4975444;28;4615;-58
2022/04/06 10:37:58;;;;;;;;;;;;;;;20.97;44.65;99452.22;4976084;28;4265;-58
2022/04/06 10:40:24;;;;;;;;;;;;;;;20.99;44.50;99458.03;4973551;28;4634;-59
2022/04/06 10:42:50;;;;;;;;;;;;;;;20.98;44.61;99454.44;4975261;28;4074;-58
2022/04/06 10:45:26;;;;;;;;;;;;;;;20.97;44.51;99461.56;4974545;28;4186;-58
2022/04/06 10:48:08;;;;;;;;;;;;;;;20.98;44.40;99450.78;4977163;28;4080;-58
2022/04/06 10:50:35;;;;;;;;;;;;;;;20.98;44.40;99462.31;4975610;28;5274;-58
2022/04/06 10:53:22;;;;;;;;;;;;;;;20.99;44.10;99463.78;4975332;28;4191;-58
2022/04/06 10:55:55;;;;;;;;;;;;;;;20.97;44.03;99455.81;4976020;28;5283;-58
2022/04/06 10:58:23;;;;;;;;;;;;;;;20.92;44.13;99465.78;4974774;28;4155;-58
2022/04/06 11:01:09;;;;;;;;;;;;;;;20.90;44.42;99462.88;4976702;28;4235;-58
2022/04/06 11:03:37;;;;;;;;;;;;;;;20.91;44.35;99465.06;4977145;28;4601;-58
2022/04/06 11:06:04;;;;;;;;;;;;;;;20.95;44.26;99452.19;4965303;28;5232;-58
2022/04/06 11:11:38;;;;;;;;;;;;;;;20.91;44.53;99458.56;4979260;28;4167;-57
2022/04/06 11:14:05;;;;;;;;;;;;;;;20.96;44.48;99450.75;4979195;28;4425;-58
2022/04/06 11:16:41;;;;;;;;;;;;;;;20.96;44.47;99451.50;4979694;28;4177;-58
2022/04/06 11:19:07;;;;;;;;;;;;;;;20.96;44.49;99453.63;4980972;28;4285;-59
2022/04/06 11:21:34;;;;;;;;;;;;;;;20.93;44.36;99462.22;4980902;28;4256;-57
2022/04/06 11:24:00;;;;;;;;;;;;;;;20.92;44.94;99455.00;4980393;28;4211;-60
2022/04/06 11:26:26;;;;;;;;;;;;;;;20.89;44.99;99450.63;4978541;28;4176;-58
2022/04/06 11:28:59;;;;;;;;;;;;;;;20.91;44.81;99453.56;4980565;28;4244;-58
2022/04/06 11:31:25;;;;;;;;;;;;;;;20.92;44.68;99460.75;4979252;28;4182;-58
2022/04/06 11:33:51;;;;;;;;;;;;;;;20.94;44.60;99468.72;4976896;28;4246;-57
2022/04/06 11:36:18;;;;;;;;;;;;;;;20.92;44.66;99460.75;4977919;28;4183;-58
2022/04/06 11:38:48;;;;;;;;;;;;;;;20.90;44.44;99457.84;4977972;28;4283;-58
2022/04/06 11:41:15;;;;;;;;;;;;;;;20.86;44.54;99469.25;4981096;28;4183;-56
2022/04/06 11:43:43;;;;;;;;;;;;;;;20.87;44.97;99467.84;4974430;28;4176;-58
2022/04/06 11:46:09;;;;;;;;;;;;;;;20.88;44.73;99460.66;4978093;28;4203;-58
2022/04/06 11:48:42;;;;;;;;;;;;;;;20.89;44.54;99461.38;4978026;28;4063;-58
2022/04/06 11:51:08;;;;;;;;;;;;;;;20.91;44.73;99465.06;4976225;28;4532;-59
2022/04/06 11:53:36;;;;;;;;;;;;;;;20.86;45.25;99463.50;4979575;28;4214;-58
2022/04/06 11:56:03;;;;;;;;;;;;;;;20.88;45.24;99466.41;4978446;28;4404;-61
2022/04/06 11:58:36;;;;;;;;;;;;;;;20.73;43.34;99467.53;4976183;28;4212;-59
2022/04/06 12:01:06;;;;;;;;;;;;;;;20.49;42.01;99461.91;4972989;28;4215;-61
2022/04/06 12:03:33;;;;;;;;;;;;;;;20.54;42.25;99457.00;4976033;28;4578;-59
2022/04/06 12:06:00;;;;;;;;;;;;;;;20.61;42.31;99449.97;4976617;28;6383;-59
2022/04/06 12:08:27;;;;;;;;;;;;;;;20.69;42.27;99461.69;4975960;28;5137;-59
2022/04/06 12:10:56;;;;;;;;;;;;;;;20.75;42.53;99452.44;4977586;28;4128;-58
2022/04/06 12:13:23;;;;;;;;;;;;;;;20.76;42.47;99460.41;4974476;28;4190;-59
2022/04/06 12:15:50;;;;;;;;;;;;;;;20.79;42.65;99446.78;4976585;28;4376;-59
2022/04/06 12:18:17;;;;;;;;;;;;;;;20.79;42.78;99459.03;4979814;28;4525;-59
2022/04/06 12:20:43;;;;;;;;;;;;;;;20.77;43.60;99456.09;4978093;28;4239;-58
2022/04/06 12:23:10;;;;;;;;;;;;;;;20.77;43.55;99456.09;4976763;28;4222;-59
2022/04/06 12:25:36;;;;;;;;;;;;;;;20.80;43.66;99456.88;4976373;28;5265;-59
2022/04/06 12:28:21;;;;;;;;;;;;;;;20.79;43.66;99450.41;4980029;28;5333;-60
2022/04/06 12:30:53;;;;;;;;;;;;;;;20.82;43.47;99446.16;4978069;28;4223;-59
2022/04/06 12:33:38;;;;;;;;;;;;;;;20.82;43.61;99440.41;4974855;28;4178;-59
2022/04/06 12:36:08;;;;;;;;;;;;;;;20.84;43.97;99434.69;4973863;28;4256;-59
2022/04/06 12:38:37;;;;;;;;;;;;;;;20.85;43.94;99426.81;4974522;28;4283;-59
2022/04/06 12:41:11;;;;;;;;;;;;;;;20.85;44.15;99436.16;4975362;28;4425;-59
2022/04/06 12:43:46;;;;;;;;;;;;;;;20.87;43.93;99424.69;4974687;28;4000;-59
2022/04/06 12:46:13;;;;;;;;;;;;;;;20.91;43.96;99441.28;4976198;28;4093;-60
2022/04/06 12:48:39;;;;;;;;;;;;;;;20.65;42.93;99427.06;4974997;28;4010;-60
2022/04/06 12:51:25;;;;;;;;;;;;;;;20.57;42.06;99430.50;4975016;28;4190;-58
2022/04/06 12:53:51;;;;;;;;;;;;;;;20.69;42.93;99416.38;4978012;28;4071;-58
2022/04/06 12:56:23;;;;;;;;;;;;;;;20.79;43.73;99430.25;4974564;28;4176;-59
2022/04/06 12:59:04;;;;;;;;;;;;;;;20.82;44.30;99428.91;4975760;28;4294;-58
2022/04/06 13:01:31;;;;;;;;;;;;;;;20.85;43.79;99416.00;4972904;28;4053;-60
2022/04/06 13:03:58;;;;;;;;;;;;;;;20.59;41.90;99424.06;4973774;28;4228;-59
2022/04/06 13:06:24;;;;;;;;;;;;;;;20.44;41.15;99423.72;4973357;28;4377;-59
2022/04/06 13:08:50;;;;;;;;;;;;;;;20.54;41.53;99434.72;4970157;28;4224;-58
2022/04/06 13:11:37;;;;;;;;;;;;;;;20.65;41.67;99427.81;4973122;28;4170;-58
2022/04/06 13:14:03;;;;;;;;;;;;;;;20.73;42.54;99420.75;4974162;28;4307;-59